createdAt,value
2022-07-28T00:04:22.374Z,102044.88
2022-07-28T00:09:26.951Z,102038.53
2022-07-28T00:14:30.058Z,102037.53
2022-07-28T00:19:33.017Z,102033.84
2022-07-28T00:24:38.280Z,102033.59
2022-07-28T00:29:49.892Z,102027.06
2022-07-28T00:34:53.879Z,102029.31
2022-07-28T00:39:58.918Z,102022.84
2022-07-28T00:45:02.071Z,102021.75
2022-07-28T00:50:05.937Z,102011.09
2022-07-28T00:55:11.160Z,102012.53
2022-07-28T01:00:14.693Z,102016.78
2022-07-28T01:05:17.807Z,102030.59
2022-07-28T01:10:51.707Z,102026.00
2022-07-28T01:15:59.369Z,102018.03
2022-07-28T01:21:06.449Z,102017.13
2022-07-28T01:26:27.977Z,102025.91
2022-07-28T01:31:39.293Z,102007.25
2022-07-28T01:36:46.482Z,102012.44
2022-07-28T01:41:52.676Z,102001.66
2022-07-28T01:47:00.092Z,101986.50
2022-07-28T01:52:06.813Z,101987.22
2022-07-28T01:57:14.625Z,101989.16
2022-07-28T02:02:20.433Z,101974.00
2022-07-28T02:07:24.875Z,101976.41
2022-07-28T02:12:29.085Z,101970.94
2022-07-28T02:17:35.663Z,101955.75
2022-07-28T02:22:40.969Z,101969.03
2022-07-28T02:27:49.151Z,101969.72
2022-07-28T02:32:56.657Z,101967.00
2022-07-28T02:38:03.008Z,101969.53
2022-07-28T02:43:11.505Z,101969.25
2022-07-28T02:48:20.478Z,101968.34
2022-07-28T02:53:24.571Z,101967.28
2022-07-28T02:58:29.577Z,101974.13
2022-07-28T03:03:35.016Z,101974.03
2022-07-28T03:08:38.194Z,101973.63
2022-07-28T03:13:41.538Z,101973.38
2022-07-28T03:18:46.076Z,101981.19
2022-07-28T03:23:52.679Z,101976.44
2022-07-28T03:28:57.696Z,101974.19
2022-07-28T03:34:02.491Z,101975.59
2022-07-28T03:39:12.105Z,101974.69
2022-07-28T03:44:26.961Z,101984.22
2022-07-28T03:49:33.402Z,101996.41
2022-07-28T03:54:36.793Z,101982.88
2022-07-28T03:59:40.511Z,101985.38
2022-07-28T04:04:45.053Z,101996.38
2022-07-28T04:09:49.491Z,101985.53
2022-07-28T04:14:52.526Z,101988.28
2022-07-28T04:19:57.248Z,101992.72
2022-07-28T04:25:01.773Z,101986.53
2022-07-28T04:30:06.204Z,101989.53
2022-07-28T04:35:17.159Z,101996.72
2022-07-28T04:40:20.618Z,101980.06
2022-07-28T04:45:23.791Z,101965.81
2022-07-28T04:50:28.574Z,101981.00
2022-07-28T04:55:35.100Z,101983.59
2022-07-28T05:00:44.695Z,101990.94
2022-07-28T05:05:54.646Z,101984.88
2022-07-28T05:10:58.522Z,101991.50
2022-07-28T05:16:01.563Z,101981.28
2022-07-28T05:21:06.097Z,101989.78
2022-07-28T05:26:09.062Z,101991.88
2022-07-28T05:31:12.073Z,101987.75
2022-07-28T05:36:16.641Z,101986.28
2022-07-28T05:41:19.784Z,101982.91
2022-07-28T05:46:22.961Z,101962.91
2022-07-28T05:51:27.335Z,101971.44
2022-07-28T05:56:30.280Z,101970.88
2022-07-28T06:01:37.616Z,101976.03
2022-07-28T06:06:42.519Z,101978.44
2022-07-28T06:11:45.526Z,101988.06
2022-07-28T06:16:51.107Z,101989.88
2022-07-28T06:21:55.963Z,101983.88
2022-07-28T06:26:58.968Z,101981.19
2022-07-28T06:32:02.006Z,101978.97
2022-07-28T06:37:07.177Z,101981.19
2022-07-28T06:42:11.355Z,101974.94
2022-07-28T06:47:14.507Z,101980.56
2022-07-28T06:52:20.910Z,101980.88
2022-07-28T06:57:24.157Z,101987.38
2022-07-28T07:02:39.443Z,101994.63
2022-07-28T07:07:43.961Z,101998.25
2022-07-28T07:12:47.188Z,101985.81
2022-07-28T07:17:50.271Z,101980.91
2022-07-28T07:22:55.495Z,101978.94
2022-07-28T07:27:58.814Z,101964.59
2022-07-28T07:33:01.850Z,101977.66
2022-07-28T07:38:12.695Z,101973.84
2022-07-28T07:43:15.714Z,101962.06
2022-07-28T07:48:18.683Z,101954.38
2022-07-28T07:53:24.323Z,101961.03
2022-07-28T07:58:27.535Z,101956.81
2022-07-28T08:03:30.559Z,101948.94
2022-07-28T08:08:43.765Z,101949.53
2022-07-28T08:13:51.061Z,101953.84
2022-07-28T08:18:58.389Z,101959.94
2022-07-28T08:24:03.977Z,101960.63
2022-07-28T08:29:07.281Z,101959.28
2022-07-28T08:34:31.061Z,101951.50
2022-07-28T08:39:36.581Z,101948.28
2022-07-28T08:44:47.553Z,101952.09
2022-07-28T08:49:51.972Z,101945.16
2022-07-28T08:54:58.435Z,101947.88
2022-07-28T09:00:02.526Z,101945.34
2022-07-28T09:05:07.122Z,101948.06
2022-07-28T09:10:12.522Z,101940.06
2022-07-28T09:15:15.426Z,101929.41
2022-07-28T09:20:18.582Z,101933.84
2022-07-28T09:25:23.322Z,101925.81
2022-07-28T09:30:31.555Z,101918.56
2022-07-28T09:35:44.174Z,101926.47
2022-07-28T09:40:59.672Z,101920.22
2022-07-28T09:46:08.152Z,101904.09
2022-07-28T09:51:14.279Z,101901.47
2022-07-28T09:56:18.834Z,101887.75
2022-07-28T10:01:22.635Z,101891.91
2022-07-28T10:06:29.838Z,101883.47
2022-07-28T10:11:39.285Z,101881.66
2022-07-28T10:16:47.011Z,101870.84
2022-07-28T10:21:54.862Z,101880.81
2022-07-28T10:27:03.012Z,101867.41
2022-07-28T10:32:07.907Z,101875.81
2022-07-28T10:37:15.976Z,101857.22
2022-07-28T10:42:21.639Z,101847.97
2022-07-28T10:47:25.723Z,101850.34
2022-07-28T10:52:51.518Z,101839.78
2022-07-28T10:58:10.906Z,101846.03
2022-07-28T11:03:37.833Z,101851.34
2022-07-28T11:08:40.947Z,101845.53
2022-07-28T11:13:45.590Z,101855.88
2022-07-28T11:19:36.044Z,101849.94
2022-07-28T11:25:18.889Z,101846.19
2022-07-28T11:30:54.878Z,101841.13
2022-07-28T11:36:00.110Z,101832.97
2022-07-28T11:41:03.108Z,101839.75
2022-07-28T11:46:40.007Z,101812.06
2022-07-28T11:51:51.386Z,101819.59
2022-07-28T11:56:59.242Z,101802.19
2022-07-28T12:02:03.775Z,101797.78
2022-07-28T12:07:08.636Z,101798.19
2022-07-28T12:12:12.560Z,101792.81
2022-07-28T12:17:17.301Z,101783.63
2022-07-28T12:22:21.162Z,101777.75
2022-07-28T12:27:29.513Z,101781.06
2022-07-28T12:32:37.171Z,101779.59
2022-07-28T12:37:40.394Z,101781.53
2022-07-28T12:42:43.989Z,101764.81
2022-07-28T12:47:48.554Z,101769.19
2022-07-28T12:53:07.037Z,101746.78
2022-07-28T12:58:23.322Z,101769.13
2022-07-28T13:03:28.943Z,101752.72
2022-07-28T13:08:44.124Z,101752.25
2022-07-28T13:13:49.364Z,101754.59
2022-07-28T13:18:56.161Z,101755.84
2022-07-28T13:23:59.162Z,101754.75
2022-07-28T13:29:02.611Z,101751.31
2022-07-28T13:34:17.889Z,101755.78
2022-07-28T13:39:21.093Z,101749.97
2022-07-28T13:44:24.162Z,101742.78
2022-07-28T13:49:29.011Z,101742.13
2022-07-28T13:54:32.245Z,101732.56
2022-07-28T13:59:37.763Z,101730.88
2022-07-28T14:04:42.269Z,101723.59
2022-07-28T14:09:50.187Z,101716.97
2022-07-28T14:14:53.226Z,101716.22
2022-07-28T14:19:57.761Z,101719.13
2022-07-28T14:25:00.755Z,101717.28
2022-07-28T14:30:04.779Z,101718.72
2022-07-28T14:35:10.230Z,101712.88
2022-07-28T14:40:14.020Z,101709.97
2022-07-28T14:45:17.256Z,101711.22
2022-07-28T14:50:21.838Z,101703.22
2022-07-28T14:55:24.907Z,101704.22
2022-07-28T15:00:28.366Z,101693.84
2022-07-28T15:05:32.915Z,101696.66
2022-07-28T15:10:35.900Z,101696.75
2022-07-28T15:15:44.397Z,101702.84
2022-07-28T15:20:50.354Z,101689.50
2022-07-28T15:25:53.744Z,101682.81
2022-07-28T15:30:56.829Z,101685.84
2022-07-28T15:36:02.061Z,101679.88
2022-07-28T15:41:05.247Z,101681.91
2022-07-28T15:46:11.144Z,101691.03
2022-07-28T15:51:15.599Z,101689.28
2022-07-28T15:56:18.781Z,101683.13
2022-07-28T16:01:22.560Z,101688.06
2022-07-28T16:06:48.269Z,101691.72
2022-07-28T16:11:51.295Z,101688.94
2022-07-28T16:16:54.679Z,101672.69
2022-07-28T16:21:59.327Z,101675.16
2022-07-28T16:27:02.373Z,101673.34
2022-07-28T16:32:06.095Z,101655.88
2022-07-28T16:37:11.569Z,101664.31
2022-07-28T16:42:15.972Z,101673.22
2022-07-28T16:47:19.128Z,101662.00
2022-07-28T16:52:23.817Z,101664.31
2022-07-28T16:57:27.067Z,101673.09
2022-07-28T17:02:30.125Z,101670.91
2022-07-28T17:07:34.838Z,101660.69
2022-07-28T17:12:38.252Z,101673.47
2022-07-28T17:17:41.268Z,101661.94
2022-07-28T17:22:48.924Z,101668.19
2022-07-28T17:27:52.124Z,101660.09
2022-07-28T17:32:55.205Z,101664.66
2022-07-28T17:37:59.725Z,101662.94
2022-07-28T17:43:02.870Z,101662.78
2022-07-28T17:48:06.499Z,101667.34
2022-07-28T17:53:11.386Z,101664.72
2022-07-28T17:58:21.381Z,101669.13
2022-07-28T18:03:29.656Z,101666.69
2022-07-28T18:08:55.412Z,101674.09
2022-07-28T18:14:03.634Z,101674.22
2022-07-28T18:19:08.333Z,101677.84
2022-07-28T18:24:13.086Z,101662.81
2022-07-28T18:29:17.974Z,101671.91
2022-07-28T18:34:23.378Z,101675.56
2022-07-28T18:39:29.559Z,101676.53
2022-07-28T18:44:32.844Z,101675.66
2022-07-28T18:49:37.607Z,101673.91
2022-07-28T18:54:42.332Z,101673.09
2022-07-28T18:59:52.095Z,101674.91
2022-07-28T19:04:55.483Z,101659.75
2022-07-28T19:10:01.061Z,101672.25
2022-07-28T19:15:04.503Z,101668.69
2022-07-28T19:20:11.694Z,101670.47
2022-07-28T19:25:16.130Z,101675.78
2022-07-28T19:30:22.824Z,101690.88
2022-07-28T19:35:26.172Z,101706.84
2022-07-28T19:40:32.081Z,101706.75
2022-07-28T19:45:35.305Z,101704.91
2022-07-28T19:50:38.578Z,101711.06
2022-07-28T19:55:50.588Z,101713.72
2022-07-28T20:00:56.530Z,101709.19
2022-07-28T20:05:59.983Z,101708.22
2022-07-28T20:11:04.437Z,101711.69
2022-07-28T20:16:07.795Z,101722.31
2022-07-28T20:21:10.800Z,101722.28
2022-07-28T20:26:17.163Z,101717.84
2022-07-28T20:31:22.434Z,101725.78
2022-07-28T20:36:29.729Z,101734.63
2022-07-28T20:41:34.728Z,101733.66
2022-07-28T20:46:37.989Z,101730.00
2022-07-28T20:51:45.290Z,101737.91
2022-07-28T20:56:55.922Z,101739.59
2022-07-28T21:01:59.036Z,101745.69
2022-07-28T21:07:04.137Z,101752.63
2022-07-28T21:12:09.570Z,101759.59
2022-07-28T21:17:12.743Z,101757.63
2022-07-28T21:22:15.694Z,101760.16
2022-07-28T21:27:20.496Z,101765.28
2022-07-28T21:32:23.486Z,101760.72
2022-07-28T21:37:26.448Z,101757.94
2022-07-28T21:42:31.083Z,101764.97
2022-07-28T21:47:34.411Z,101770.22
2022-07-28T21:52:39.477Z,101773.69
2022-07-28T21:57:43.853Z,101769.06
2022-07-28T22:02:46.852Z,101774.34
2022-07-28T22:07:50.226Z,101773.34
2022-07-28T22:12:54.612Z,101770.59
2022-07-28T22:17:57.584Z,101774.91
2022-07-28T22:23:00.506Z,101768.56
2022-07-28T22:28:05.500Z,101769.41
2022-07-28T22:33:08.452Z,101771.94
2022-07-28T22:38:11.424Z,101783.34
2022-07-28T22:43:15.872Z,101780.63
2022-07-28T22:48:18.984Z,101782.31
2022-07-28T22:53:21.976Z,101776.78
2022-07-28T22:58:26.743Z,101783.84
2022-07-28T23:03:30.608Z,101780.22
2022-07-28T23:08:34.159Z,101774.84
2022-07-28T23:13:38.581Z,101783.56
2022-07-28T23:18:42.422Z,101770.16
2022-07-28T23:23:45.704Z,101770.09
2022-07-28T23:28:50.064Z,101775.34
2022-07-28T23:33:55.119Z,101772.69
2022-07-28T23:39:00.745Z,101765.50
2022-07-28T23:44:05.635Z,101758.34
2022-07-28T23:49:08.897Z,101768.13
2022-07-28T23:54:14.461Z,101763.59
2022-07-28T23:59:19.246Z,101746.66
